sensor_id;sensor_type;location;lat;lon;timestamp;P1;durP1;ratioP1;P2;durP2;ratioP2
44973;SDS011;60981;50.720;11.342;2022-12-15T05:23:52;28.87;;;12.07;;
44973;SDS011;60981;50.720;11.342;2022-12-15T05:25:12;26.33;;;12.33;;
44973;SDS011;60981;50.720;11.342;2022-12-15T05:26:32;26.47;;;12.17;;
44973;SDS011;60981;50.720;11.342;2022-12-15T05:27:53;26.15;;;11.18;;
44973;SDS011;60981;50.720;11.342;2022-12-15T05:29:14;22.60;;;11.00;;
44973;SDS011;60981;50.720;11.342;2022-12-15T05:30:34;26.73;;;11.30;;
44973;SDS011;60981;50.720;11.342;2022-12-15T05:31:54;23.92;;;10.25;;
44973;SDS011;60981;50.720;11.342;2022-12-15T05:32:55;25.95;;;12.18;;
44973;SDS011;60981;50.720;11.342;2022-12-15T05:33:57;25.97;;;12.20;;
44973;SDS011;60981;50.720;11.342;2022-12-15T05:35:05;26.30;;;11.75;;
44973;SDS011;60981;50.720;11.342;2022-12-15T05:36:07;25.90;;;11.48;;
44973;SDS011;60981;50.720;11.342;2022-12-15T05:37:09;24.30;;;11.73;;
44973;SDS011;60981;50.720;11.342;2022-12-15T05:38:10;26.70;;;11.17;;
44973;SDS011;60981;50.720;11.342;2022-12-15T05:39:12;21.52;;;10.25;;
44973;SDS011;60981;50.720;11.342;2022-12-15T05:40:14;23.67;;;11.55;;
44973;SDS011;60981;50.720;11.342;2022-12-15T05:41:16;23.75;;;11.63;;
44973;SDS011;60981;50.720;11.342;2022-12-15T05:42:18;25.60;;;11.73;;
44973;SDS011;60981;50.720;11.342;2022-12-15T05:43:20;24.30;;;11.52;;
44973;SDS011;60981;50.720;11.342;2022-12-15T05:44:27;24.97;;;10.97;;
44973;SDS011;60981;50.720;11.342;2022-12-15T05:45:28;24.38;;;10.63;;
44973;SDS011;60981;50.720;11.342;2022-12-15T05:46:30;26.38;;;12.73;;
44973;SDS011;60981;50.720;11.342;2022-12-15T05:47:32;24.95;;;11.45;;
44973;SDS011;60981;50.720;11.342;2022-12-15T05:48:33;23.90;;;11.23;;
44973;SDS011;60981;50.720;11.342;2022-12-15T05:49:35;23.33;;;11.38;;
44973;SDS011;60981;50.720;11.342;2022-12-15T05:50:36;28.73;;;12.25;;
44973;SDS011;60981;50.720;11.342;2022-12-15T05:51:38;26.70;;;11.50;;
44973;SDS011;60981;50.720;11.342;2022-12-15T05:52:40;20.52;;;10.45;;
44973;SDS011;60981;50.720;11.342;2022-12-15T05:53:49;28.63;;;11.65;;
44973;SDS011;60981;50.720;11.342;2022-12-15T05:54:50;23.92;;;11.13;;
44973;SDS011;60981;50.720;11.342;2022-12-15T05:55:52;27.15;;;11.13;;
44973;SDS011;60981;50.720;11.342;2022-12-15T05:56:53;24.10;;;11.20;;
44973;SDS011;60981;50.720;11.342;2022-12-15T05:57:55;27.15;;;11.82;;
44973;SDS011;60981;50.720;11.342;2022-12-15T05:58:56;25.83;;;11.75;;
44973;SDS011;60981;50.720;11.342;2022-12-15T05:59:58;23.40;;;12.02;;
44973;SDS011;60981;50.720;11.342;2022-12-15T06:01:04;23.80;;;11.43;;
44973;SDS011;60981;50.720;11.342;2022-12-15T06:02:06;23.98;;;11.30;;
44973;SDS011;60981;50.720;11.342;2022-12-15T06:03:07;28.77;;;12.93;;
44973;SDS011;60981;50.720;11.342;2022-12-15T06:04:10;25.25;;;11.73;;
44973;SDS011;60981;50.720;11.342;2022-12-15T06:05:12;24.17;;;11.63;;
44973;SDS011;60981;50.720;11.342;2022-12-15T06:06:14;24.13;;;11.77;;
44973;SDS011;60981;50.720;11.342;2022-12-15T06:07:15;31.40;;;12.27;;
44973;SDS011;60981;50.720;11.342;2022-12-15T06:08:17;25.45;;;11.68;;
44973;SDS011;60981;50.720;11.342;2022-12-15T06:09:18;25.90;;;11.10;;
44973;SDS011;60981;50.720;11.342;2022-12-15T06:10:20;20.77;;;10.18;;
44973;SDS011;60981;50.720;11.342;2022-12-15T06:11:22;23.73;;;11.03;;
44973;SDS011;60981;50.720;11.342;2022-12-15T06:12:24;22.48;;;10.75;;
44973;SDS011;60981;50.720;11.342;2022-12-15T06:13:26;21.92;;;9.75;;
44973;SDS011;60981;50.720;11.342;2022-12-15T06:14:28;20.67;;;10.90;;
44973;SDS011;60981;50.720;11.342;2022-12-15T06:15:31;22.33;;;10.75;;
44973;SDS011;60981;50.720;11.342;2022-12-15T06:16:33;23.60;;;10.85;;
44973;SDS011;60981;50.720;11.342;2022-12-15T06:17:41;22.58;;;10.55;;
44973;SDS011;60981;50.720;11.342;2022-12-15T06:18:46;20.35;;;10.13;;
44973;SDS011;60981;50.720;11.342;2022-12-15T06:19:50;22.88;;;10.27;;
44973;SDS011;60981;50.720;11.342;2022-12-15T06:20:58;20.45;;;10.55;;
44973;SDS011;60981;50.720;11.342;2022-12-15T06:22:00;21.30;;;10.50;;
44973;SDS011;60981;50.720;11.342;2022-12-15T06:23:02;21.88;;;9.63;;
44973;SDS011;60981;50.720;11.342;2022-12-15T06:24:04;24.90;;;10.35;;
44973;SDS011;60981;50.720;11.342;2022-12-15T06:25:07;21.85;;;10.60;;
44973;SDS011;60981;50.720;11.342;2022-12-15T06:26:09;22.90;;;10.05;;
44973;SDS011;60981;50.720;11.342;2022-12-15T06:27:12;20.02;;;9.43;;
44973;SDS011;60981;50.720;11.342;2022-12-15T06:28:13;24.88;;;11.25;;
44973;SDS011;60981;50.720;11.342;2022-12-15T06:29:15;24.02;;;10.95;;
44973;SDS011;60981;50.720;11.342;2022-12-15T06:30:16;22.90;;;10.73;;
44973;SDS011;60981;50.720;11.342;2022-12-15T06:31:19;23.38;;;10.55;;
44973;SDS011;60981;50.720;11.342;2022-12-15T06:32:26;25.45;;;11.35;;
44973;SDS011;60981;50.720;11.342;2022-12-15T06:33:28;29.30;;;13.17;;
44973;SDS011;60981;50.720;11.342;2022-12-15T06:34:30;29.23;;;13.07;;
44973;SDS011;60981;50.720;11.342;2022-12-15T06:35:34;30.35;;;14.07;;
44973;SDS011;60981;50.720;11.342;2022-12-15T06:36:35;29.40;;;14.18;;
44973;SDS011;60981;50.720;11.342;2022-12-15T06:37:37;28.83;;;13.32;;
44973;SDS011;60981;50.720;11.342;2022-12-15T06:38:38;30.40;;;12.88;;
44973;SDS011;60981;50.720;11.342;2022-12-15T06:39:40;29.08;;;14.10;;
44973;SDS011;60981;50.720;11.342;2022-12-15T06:40:41;27.70;;;12.77;;
44973;SDS011;60981;50.720;11.342;2022-12-15T06:41:43;23.45;;;10.30;;
44973;SDS011;60981;50.720;11.342;2022-12-15T06:42:45;21.58;;;10.50;;
44973;SDS011;60981;50.720;11.342;2022-12-15T06:43:50;21.10;;;9.55;;
44973;SDS011;60981;50.720;11.342;2022-12-15T06:44:52;20.77;;;9.48;;
44973;SDS011;60981;50.720;11.342;2022-12-15T06:45:53;23.98;;;10.73;;
44973;SDS011;60981;50.720;11.342;2022-12-15T06:46:55;20.35;;;10.13;;
44973;SDS011;60981;50.720;11.342;2022-12-15T06:47:57;25.40;;;11.10;;
44973;SDS011;60981;50.720;11.342;2022-12-15T06:49:02;23.95;;;11.25;;
44973;SDS011;60981;50.720;11.342;2022-12-15T06:50:03;22.00;;;9.73;;
44973;SDS011;60981;50.720;11.342;2022-12-15T06:51:05;25.15;;;11.00;;
44973;SDS011;60981;50.720;11.342;2022-12-15T06:52:16;22.40;;;9.75;;
44973;SDS011;60981;50.720;11.342;2022-12-15T06:53:19;20.87;;;9.50;;
44973;SDS011;60981;50.720;11.342;2022-12-15T06:54:21;20.23;;;9.50;;
44973;SDS011;60981;50.720;11.342;2022-12-15T06:55:22;22.85;;;9.98;;
44973;SDS011;60981;50.720;11.342;2022-12-15T06:56:24;21.30;;;9.88;;
44973;SDS011;60981;50.720;11.342;2022-12-15T06:57:33;19.80;;;9.52;;
44973;SDS011;60981;50.720;11.342;2022-12-15T06:58:36;18.95;;;9.35;;
44973;SDS011;60981;50.720;11.342;2022-12-15T06:59:38;21.50;;;9.70;;
44973;SDS011;60981;50.720;11.342;2022-12-15T07:00:40;21.05;;;10.13;;
44973;SDS011;60981;50.720;11.342;2022-12-15T07:01:43;21.58;;;9.77;;
44973;SDS011;60981;50.720;11.342;2022-12-15T07:02:44;22.33;;;9.73;;
44973;SDS011;60981;50.720;11.342;2022-12-15T07:03:51;24.67;;;10.30;;
44973;SDS011;60981;50.720;11.342;2022-12-15T07:04:52;23.45;;;10.48;;
44973;SDS011;60981;50.720;11.342;2022-12-15T07:11:03;23.73;;;10.13;;
44973;SDS011;60981;50.720;11.342;2022-12-15T07:12:05;23.93;;;10.43;;
44973;SDS011;60981;50.720;11.342;2022-12-15T07:22:30;27.13;;;11.73;;
44973;SDS011;60981;50.720;11.342;2022-12-15T07:23:32;32.10;;;12.90;;
44973;SDS011;60981;50.720;11.342;2022-12-15T07:24:53;25.70;;;12.27;;
44973;SDS011;60981;50.720;11.342;2022-12-15T07:25:55;24.13;;;12.30;;
44973;SDS011;60981;50.720;11.342;2022-12-15T07:26:56;28.03;;;12.43;;
44973;SDS011;60981;50.720;11.342;2022-12-15T07:27:58;29.65;;;13.07;;
44973;SDS011;60981;50.720;11.342;2022-12-15T07:28:59;27.52;;;13.20;;
44973;SDS011;60981;50.720;11.342;2022-12-15T07:30:01;28.23;;;14.02;;
44973;SDS011;60981;50.720;11.342;2022-12-15T07:31:04;29.92;;;16.83;;
44973;SDS011;60981;50.720;11.342;2022-12-15T07:32:06;28.17;;;12.98;;
44973;SDS011;60981;50.720;11.342;2022-12-15T07:33:07;30.25;;;15.48;;
44973;SDS011;60981;50.720;11.342;2022-12-15T07:34:09;24.90;;;12.30;;
44973;SDS011;60981;50.720;11.342;2022-12-15T07:35:10;24.93;;;11.10;;
44973;SDS011;60981;50.720;11.342;2022-12-15T07:36:12;24.33;;;10.80;;
44973;SDS011;60981;50.720;11.342;2022-12-15T07:37:14;22.63;;;11.27;;
44973;SDS011;60981;50.720;11.342;2022-12-15T07:38:16;23.77;;;11.37;;
44973;SDS011;60981;50.720;11.342;2022-12-15T07:39:17;21.07;;;9.23;;
44973;SDS011;60981;50.720;11.342;2022-12-15T07:42:48;27.67;;;12.13;;
44973;SDS011;60981;50.720;11.342;2022-12-15T07:50:51;21.83;;;11.03;;
44973;SDS011;60981;50.720;11.342;2022-12-15T07:53:10;25.08;;;11.20;;
44973;SDS011;60981;50.720;11.342;2022-12-15T08:17:07;19.40;;;10.73;;
44973;SDS011;60981;50.720;11.342;2022-12-15T08:23:32;47.40;;;20.88;;
44973;SDS011;60981;50.720;11.342;2022-12-15T08:25:29;37.28;;;17.38;;
44973;SDS011;60981;50.720;11.342;2022-12-15T08:29:02;19.63;;;9.20;;
44973;SDS011;60981;50.720;11.342;2022-12-15T08:30:24;20.27;;;9.30;;
44973;SDS011;60981;50.720;11.342;2022-12-15T08:31:26;22.85;;;9.68;;
44973;SDS011;60981;50.720;11.342;2022-12-15T08:32:31;25.30;;;12.30;;
44973;SDS011;60981;50.720;11.342;2022-12-15T08:33:35;25.52;;;11.32;;
44973;SDS011;60981;50.720;11.342;2022-12-15T08:34:39;24.63;;;11.65;;
44973;SDS011;60981;50.720;11.342;2022-12-15T08:35:44;22.40;;;11.05;;
44973;SDS011;60981;50.720;11.342;2022-12-15T08:36:57;20.48;;;10.85;;
44973;SDS011;60981;50.720;11.342;2022-12-15T08:38:16;24.00;;;11.23;;
44973;SDS011;60981;50.720;11.342;2022-12-15T08:39:21;22.08;;;10.88;;
44973;SDS011;60981;50.720;11.342;2022-12-15T08:40:29;23.40;;;9.23;;
44973;SDS011;60981;50.720;11.342;2022-12-15T08:41:31;22.98;;;10.10;;
44973;SDS011;60981;50.720;11.342;2022-12-15T08:42:33;22.95;;;11.90;;
44973;SDS011;60981;50.720;11.342;2022-12-15T08:43:35;23.65;;;11.10;;
44973;SDS011;60981;50.720;11.342;2022-12-15T08:46:09;22.70;;;9.88;;
44973;SDS011;60981;50.720;11.342;2022-12-15T08:47:15;24.20;;;12.18;;
44973;SDS011;60981;50.720;11.342;2022-12-15T08:48:20;24.27;;;12.48;;
44973;SDS011;60981;50.720;11.342;2022-12-15T08:49:23;22.00;;;11.83;;
44973;SDS011;60981;50.720;11.342;2022-12-15T08:50:26;23.00;;;12.60;;
44973;SDS011;60981;50.720;11.342;2022-12-15T08:51:31;24.52;;;13.10;;
44973;SDS011;60981;50.720;11.342;2022-12-15T08:52:36;25.73;;;12.25;;
44973;SDS011;60981;50.720;11.342;2022-12-15T08:54:05;21.42;;;10.15;;
44973;SDS011;60981;50.720;11.342;2022-12-15T08:55:08;22.92;;;10.77;;
44973;SDS011;60981;50.720;11.342;2022-12-15T08:56:18;22.75;;;10.73;;
44973;SDS011;60981;50.720;11.342;2022-12-15T08:57:21;20.17;;;9.85;;
44973;SDS011;60981;50.720;11.342;2022-12-15T08:58:26;20.33;;;10.57;;
44973;SDS011;60981;50.720;11.342;2022-12-15T08:59:34;21.50;;;11.43;;
44973;SDS011;60981;50.720;11.342;2022-12-15T09:00:36;21.33;;;9.68;;
44973;SDS011;60981;50.720;11.342;2022-12-15T09:01:38;22.70;;;10.32;;
44973;SDS011;60981;50.720;11.342;2022-12-15T09:02:44;20.77;;;9.50;;
44973;SDS011;60981;50.720;11.342;2022-12-15T09:05:14;16.13;;;8.57;;
44973;SDS011;60981;50.720;11.342;2022-12-15T09:06:27;20.00;;;10.18;;
44973;SDS011;60981;50.720;11.342;2022-12-15T09:07:32;19.38;;;9.73;;
44973;SDS011;60981;50.720;11.342;2022-12-15T09:08:44;20.27;;;11.05;;
44973;SDS011;60981;50.720;11.342;2022-12-15T09:09:53;19.10;;;10.23;;
44973;SDS011;60981;50.720;11.342;2022-12-15T09:10:56;18.25;;;10.05;;
44973;SDS011;60981;50.720;11.342;2022-12-15T09:11:58;18.17;;;9.85;;
44973;SDS011;60981;50.720;11.342;2022-12-15T09:13:00;17.42;;;9.30;;
44973;SDS011;60981;50.720;11.342;2022-12-15T09:14:03;17.55;;;9.27;;
44973;SDS011;60981;50.720;11.342;2022-12-15T09:15:08;18.45;;;9.80;;
44973;SDS011;60981;50.720;11.342;2022-12-15T09:16:12;17.00;;;8.85;;
44973;SDS011;60981;50.720;11.342;2022-12-15T09:17:14;16.17;;;8.35;;
44973;SDS011;60981;50.720;11.342;2022-12-15T09:18:19;15.48;;;7.25;;
44973;SDS011;60981;50.720;11.342;2022-12-15T09:19:24;15.68;;;8.48;;
44973;SDS011;60981;50.720;11.342;2022-12-15T09:20:26;18.55;;;8.73;;
44973;SDS011;60981;50.720;11.342;2022-12-15T09:21:28;19.67;;;9.02;;
44973;SDS011;60981;50.720;11.342;2022-12-15T09:22:31;17.80;;;9.38;;
44973;SDS011;60981;50.720;11.342;2022-12-15T09:23:34;19.45;;;8.77;;
44973;SDS011;60981;50.720;11.342;2022-12-15T09:24:37;14.88;;;8.00;;
44973;SDS011;60981;50.720;11.342;2022-12-15T09:25:39;16.23;;;8.50;;
44973;SDS011;60981;50.720;11.342;2022-12-15T09:26:41;15.02;;;7.80;;
44973;SDS011;60981;50.720;11.342;2022-12-15T09:27:43;16.20;;;8.07;;
44973;SDS011;60981;50.720;11.342;2022-12-15T09:28:47;16.58;;;7.82;;
44973;SDS011;60981;50.720;11.342;2022-12-15T09:30:02;19.73;;;7.50;;
44973;SDS011;60981;50.720;11.342;2022-12-15T09:32:36;15.90;;;7.32;;
44973;SDS011;60981;50.720;11.342;2022-12-15T09:33:39;14.88;;;6.93;;
44973;SDS011;60981;50.720;11.342;2022-12-15T09:34:41;14.52;;;6.57;;
44973;SDS011;60981;50.720;11.342;2022-12-15T09:35:51;15.35;;;7.47;;
44973;SDS011;60981;50.720;11.342;2022-12-15T09:37:02;14.15;;;7.13;;
44973;SDS011;60981;50.720;11.342;2022-12-15T09:38:04;14.55;;;6.65;;
44973;SDS011;60981;50.720;11.342;2022-12-15T09:39:06;14.32;;;6.82;;
44973;SDS011;60981;50.720;11.342;2022-12-15T09:40:10;15.63;;;7.07;;
44973;SDS011;60981;50.720;11.342;2022-12-15T09:42:26;13.48;;;6.15;;
44973;SDS011;60981;50.720;11.342;2022-12-15T09:45:06;15.90;;;7.22;;
44973;SDS011;60981;50.720;11.342;2022-12-15T09:47:50;16.30;;;7.25;;
44973;SDS011;60981;50.720;11.342;2022-12-15T09:48:54;14.13;;;7.28;;
44973;SDS011;60981;50.720;11.342;2022-12-15T09:50:17;19.98;;;7.70;;
44973;SDS011;60981;50.720;11.342;2022-12-15T09:51:20;21.92;;;8.95;;
44973;SDS011;60981;50.720;11.342;2022-12-15T09:52:30;18.75;;;8.20;;
44973;SDS011;60981;50.720;11.342;2022-12-15T09:54:41;17.65;;;7.88;;
44973;SDS011;60981;50.720;11.342;2022-12-15T09:55:24;18.20;;;7.82;;
44973;SDS011;60981;50.720;11.342;2022-12-15T09:56:38;17.40;;;8.57;;
44973;SDS011;60981;50.720;11.342;2022-12-15T09:57:54;18.48;;;8.75;;
44973;SDS011;60981;50.720;11.342;2022-12-15T10:00:21;17.83;;;8.50;;
44973;SDS011;60981;50.720;11.342;2022-12-15T10:07:58;20.40;;;8.45;;
44973;SDS011;60981;50.720;11.342;2022-12-15T10:09:29;20.35;;;8.80;;
44973;SDS011;60981;50.720;11.342;2022-12-15T10:12:53;39.28;;;15.43;;
44973;SDS011;60981;50.720;11.342;2022-12-15T10:16:08;25.25;;;11.57;;
44973;SDS011;60981;50.720;11.342;2022-12-15T10:18:49;21.30;;;9.98;;
44973;SDS011;60981;50.720;11.342;2022-12-15T10:20:16;17.02;;;8.50;;
44973;SDS011;60981;50.720;11.342;2022-12-15T10:21:55;15.32;;;8.25;;
44973;SDS011;60981;50.720;11.342;2022-12-15T10:28:46;24.15;;;12.18;;
44973;SDS011;60981;50.720;11.342;2022-12-15T10:30:10;22.55;;;11.35;;
44973;SDS011;60981;50.720;11.342;2022-12-15T10:31:57;32.80;;;13.55;;
44973;SDS011;60981;50.720;11.342;2022-12-15T10:33:20;26.33;;;12.45;;
44973;SDS011;60981;50.720;11.342;2022-12-15T10:37:39;21.35;;;10.32;;
44973;SDS011;60981;50.720;11.342;2022-12-15T10:40:55;19.85;;;9.70;;
44973;SDS011;60981;50.720;11.342;2022-12-15T10:46:00;20.95;;;10.45;;
44973;SDS011;60981;50.720;11.342;2022-12-15T10:48:18;19.50;;;9.10;;
44973;SDS011;60981;50.720;11.342;2022-12-15T10:49:33;19.77;;;9.30;;
44973;SDS011;60981;50.720;11.342;2022-12-15T10:50:35;19.58;;;9.73;;
44973;SDS011;60981;50.720;11.342;2022-12-15T10:51:52;19.88;;;8.75;;
44973;SDS011;60981;50.720;11.342;2022-12-15T10:52:54;21.48;;;10.43;;
44973;SDS011;60981;50.720;11.342;2022-12-15T10:54:05;19.05;;;10.35;;
44973;SDS011;60981;50.720;11.342;2022-12-15T10:57:21;25.40;;;11.55;;
44973;SDS011;60981;50.720;11.342;2022-12-15T10:58:34;20.67;;;11.23;;
44973;SDS011;60981;50.720;11.342;2022-12-15T11:07:22;19.52;;;10.15;;
44973;SDS011;60981;50.720;11.342;2022-12-15T11:08:25;19.52;;;9.88;;
44973;SDS011;60981;50.720;11.342;2022-12-15T11:11:00;20.15;;;10.48;;
44973;SDS011;60981;50.720;11.342;2022-12-15T11:12:22;21.55;;;10.48;;
44973;SDS011;60981;50.720;11.342;2022-12-15T11:14:03;20.67;;;10.60;;
44973;SDS011;60981;50.720;11.342;2022-12-15T11:16:22;22.75;;;11.40;;
44973;SDS011;60981;50.720;11.342;2022-12-15T11:17:23;19.50;;;10.77;;
44973;SDS011;60981;50.720;11.342;2022-12-15T11:18:29;22.00;;;12.05;;
44973;SDS011;60981;50.720;11.342;2022-12-15T11:20:56;20.80;;;10.82;;
44973;SDS011;60981;50.720;11.342;2022-12-15T11:22:02;21.65;;;11.48;;
44973;SDS011;60981;50.720;11.342;2022-12-15T11:24:15;22.55;;;11.82;;
44973;SDS011;60981;50.720;11.342;2022-12-15T11:25:30;24.08;;;11.52;;
44973;SDS011;60981;50.720;11.342;2022-12-15T11:27:36;20.73;;;11.88;;
44973;SDS011;60981;50.720;11.342;2022-12-15T11:28:45;23.85;;;11.52;;
44973;SDS011;60981;50.720;11.342;2022-12-15T11:31:05;23.13;;;12.70;;
44973;SDS011;60981;50.720;11.342;2022-12-15T11:32:31;24.52;;;13.20;;
44973;SDS011;60981;50.720;11.342;2022-12-15T11:33:40;23.90;;;13.75;;
44973;SDS011;60981;50.720;11.342;2022-12-15T11:34:54;24.85;;;14.50;;
44973;SDS011;60981;50.720;11.342;2022-12-15T11:46:21;21.13;;;12.07;;
44973;SDS011;60981;50.720;11.342;2022-12-15T12:03:14;23.33;;;13.77;;
44973;SDS011;60981;50.720;11.342;2022-12-15T12:15:52;25.43;;;14.37;;
44973;SDS011;60981;50.720;11.342;2022-12-15T12:19:57;21.58;;;12.45;;
44973;SDS011;60981;50.720;11.342;2022-12-15T12:23:04;20.90;;;12.27;;
44973;SDS011;60981;50.720;11.342;2022-12-15T12:28:59;19.50;;;11.27;;
44973;SDS011;60981;50.720;11.342;2022-12-15T12:31:14;20.10;;;12.10;;
44973;SDS011;60981;50.720;11.342;2022-12-15T12:34:00;20.17;;;11.98;;
44973;SDS011;60981;50.720;11.342;2022-12-15T12:35:14;21.30;;;12.05;;
44973;SDS011;60981;50.720;11.342;2022-12-15T12:37:00;22.45;;;11.55;;
44973;SDS011;60981;50.720;11.342;2022-12-15T12:38:10;19.52;;;10.70;;
44973;SDS011;60981;50.720;11.342;2022-12-15T12:39:16;21.88;;;13.40;;
44973;SDS011;60981;50.720;11.342;2022-12-15T12:41:06;28.10;;;16.13;;
44973;SDS011;60981;50.720;11.342;2022-12-15T12:43:49;24.27;;;14.00;;
44973;SDS011;60981;50.720;11.342;2022-12-15T12:52:50;19.70;;;11.20;;
44973;SDS011;60981;50.720;11.342;2022-12-15T12:54:03;21.25;;;12.02;;
44973;SDS011;60981;50.720;11.342;2022-12-15T12:59:02;21.35;;;11.52;;
44973;SDS011;60981;50.720;11.342;2022-12-15T13:00:41;21.65;;;11.88;;
44973;SDS011;60981;50.720;11.342;2022-12-15T13:02:38;24.15;;;12.32;;
44973;SDS011;60981;50.720;11.342;2022-12-15T13:05:32;24.05;;;12.15;;
44973;SDS011;60981;50.720;11.342;2022-12-15T13:20:45;19.70;;;11.65;;
44973;SDS011;60981;50.720;11.342;2022-12-15T13:22:41;23.13;;;13.80;;
44973;SDS011;60981;50.720;11.342;2022-12-15T13:26:36;22.55;;;13.57;;
44973;SDS011;60981;50.720;11.342;2022-12-15T13:31:26;23.77;;;12.55;;
44973;SDS011;60981;50.720;11.342;2022-12-15T13:39:58;19.48;;;11.25;;
44973;SDS011;60981;50.720;11.342;2022-12-15T13:41:24;19.65;;;11.13;;
44973;SDS011;60981;50.720;11.342;2022-12-15T13:45:14;19.55;;;11.52;;
44973;SDS011;60981;50.720;11.342;2022-12-15T13:48:23;20.80;;;11.57;;
44973;SDS011;60981;50.720;11.342;2022-12-15T13:58:17;17.65;;;11.13;;
44973;SDS011;60981;50.720;11.342;2022-12-15T13:59:39;18.23;;;11.23;;
44973;SDS011;60981;50.720;11.342;2022-12-15T14:01:27;19.20;;;11.27;;
44973;SDS011;60981;50.720;11.342;2022-12-15T14:03:19;19.20;;;10.90;;
44973;SDS011;60981;50.720;11.342;2022-12-15T14:18:27;19.73;;;10.13;;
44973;SDS011;60981;50.720;11.342;2022-12-15T14:21:58;20.67;;;10.55;;
44973;SDS011;60981;50.720;11.342;2022-12-15T14:23:29;20.48;;;10.70;;
44973;SDS011;60981;50.720;11.342;2022-12-15T14:29:34;21.85;;;9.80;;
44973;SDS011;60981;50.720;11.342;2022-12-15T14:43:33;16.38;;;9.35;;
44973;SDS011;60981;50.720;11.342;2022-12-15T14:45:17;24.80;;;10.90;;
44973;SDS011;60981;50.720;11.342;2022-12-15T14:46:27;24.52;;;11.35;;
44973;SDS011;60981;50.720;11.342;2022-12-15T14:48:39;27.42;;;11.52;;
44973;SDS011;60981;50.720;11.342;2022-12-15T14:56:10;23.48;;;11.95;;
44973;SDS011;60981;50.720;11.342;2022-12-15T14:57:43;23.58;;;11.57;;
44973;SDS011;60981;50.720;11.342;2022-12-15T15:04:19;26.90;;;11.88;;
44973;SDS011;60981;50.720;11.342;2022-12-15T15:06:02;26.42;;;13.77;;
44973;SDS011;60981;50.720;11.342;2022-12-15T15:09:44;46.65;;;23.05;;
44973;SDS011;60981;50.720;11.342;2022-12-15T15:13:18;49.50;;;25.15;;
44973;SDS011;60981;50.720;11.342;2022-12-15T15:20:20;32.83;;;15.50;;
44973;SDS011;60981;50.720;11.342;2022-12-15T15:21:55;28.98;;;14.48;;
44973;SDS011;60981;50.720;11.342;2022-12-15T15:25:26;32.47;;;15.55;;
44973;SDS011;60981;50.720;11.342;2022-12-15T15:28:42;39.42;;;19.23;;
44973;SDS011;60981;50.720;11.342;2022-12-15T15:31:46;43.78;;;20.38;;
44973;SDS011;60981;50.720;11.342;2022-12-15T15:32:55;43.35;;;21.55;;
44973;SDS011;60981;50.720;11.342;2022-12-15T15:33:59;41.70;;;20.70;;
44973;SDS011;60981;50.720;11.342;2022-12-15T15:35:03;39.35;;;19.73;;
44973;SDS011;60981;50.720;11.342;2022-12-15T15:36:08;38.70;;;19.75;;
44973;SDS011;60981;50.720;11.342;2022-12-15T15:38:01;44.67;;;19.13;;
44973;SDS011;60981;50.720;11.342;2022-12-15T15:39:59;42.83;;;20.40;;
44973;SDS011;60981;50.720;11.342;2022-12-15T15:41:42;37.60;;;18.63;;
44973;SDS011;60981;50.720;11.342;2022-12-15T15:43:40;34.38;;;17.90;;
44973;SDS011;60981;50.720;11.342;2022-12-15T15:45:32;32.17;;;17.27;;
44973;SDS011;60981;50.720;11.342;2022-12-15T15:47:29;30.40;;;16.70;;
44973;SDS011;60981;50.720;11.342;2022-12-15T15:48:54;27.08;;;13.63;;
44973;SDS011;60981;50.720;11.342;2022-12-15T15:52:30;28.50;;;13.88;;
44973;SDS011;60981;50.720;11.342;2022-12-15T15:59:59;30.63;;;14.70;;
44973;SDS011;60981;50.720;11.342;2022-12-15T16:01:02;25.65;;;12.50;;
44973;SDS011;60981;50.720;11.342;2022-12-15T16:02:13;27.13;;;13.43;;
44973;SDS011;60981;50.720;11.342;2022-12-15T16:03:15;24.52;;;12.68;;
44973;SDS011;60981;50.720;11.342;2022-12-15T16:04:17;27.60;;;13.77;;
44973;SDS011;60981;50.720;11.342;2022-12-15T16:05:18;28.85;;;14.35;;
44973;SDS011;60981;50.720;11.342;2022-12-15T16:06:21;29.02;;;14.73;;
44973;SDS011;60981;50.720;11.342;2022-12-15T16:07:25;28.92;;;14.38;;
44973;SDS011;60981;50.720;11.342;2022-12-15T16:08:29;26.65;;;14.15;;
44973;SDS011;60981;50.720;11.342;2022-12-15T16:09:32;28.13;;;12.73;;
44973;SDS011;60981;50.720;11.342;2022-12-15T16:10:34;28.33;;;14.63;;
44973;SDS011;60981;50.720;11.342;2022-12-15T16:11:35;26.33;;;13.40;;
44973;SDS011;60981;50.720;11.342;2022-12-15T16:12:45;33.47;;;15.45;;
44973;SDS011;60981;50.720;11.342;2022-12-15T16:13:48;28.92;;;15.40;;
44973;SDS011;60981;50.720;11.342;2022-12-15T16:15:51;30.45;;;14.30;;
44973;SDS011;60981;50.720;11.342;2022-12-15T16:16:53;32.28;;;15.45;;
44973;SDS011;60981;50.720;11.342;2022-12-15T16:17:55;29.73;;;15.45;;
44973;SDS011;60981;50.720;11.342;2022-12-15T16:18:56;27.77;;;15.15;;
44973;SDS011;60981;50.720;11.342;2022-12-15T16:19:58;29.27;;;15.35;;
44973;SDS011;60981;50.720;11.342;2022-12-15T16:21:00;29.77;;;15.00;;
44973;SDS011;60981;50.720;11.342;2022-12-15T16:22:01;33.03;;;17.30;;
44973;SDS011;60981;50.720;11.342;2022-12-15T16:23:13;29.60;;;16.60;;
44973;SDS011;60981;50.720;11.342;2022-12-15T16:24:16;32.10;;;17.70;;
44973;SDS011;60981;50.720;11.342;2022-12-15T16:25:18;32.13;;;17.50;;
44973;SDS011;60981;50.720;11.342;2022-12-15T16:26:25;32.38;;;18.55;;
44973;SDS011;60981;50.720;11.342;2022-12-15T16:27:27;33.65;;;17.77;;
44973;SDS011;60981;50.720;11.342;2022-12-15T16:28:29;31.77;;;18.60;;
44973;SDS011;60981;50.720;11.342;2022-12-15T16:29:31;37.83;;;19.83;;
44973;SDS011;60981;50.720;11.342;2022-12-15T16:30:33;31.95;;;16.00;;
44973;SDS011;60981;50.720;11.342;2022-12-15T16:31:35;26.23;;;12.85;;
44973;SDS011;60981;50.720;11.342;2022-12-15T16:32:42;27.17;;;14.23;;
44973;SDS011;60981;50.720;11.342;2022-12-15T16:33:43;27.02;;;15.10;;
44973;SDS011;60981;50.720;11.342;2022-12-15T16:34:45;29.10;;;16.52;;
44973;SDS011;60981;50.720;11.342;2022-12-15T16:35:47;26.98;;;15.43;;
44973;SDS011;60981;50.720;11.342;2022-12-15T16:36:49;30.42;;;16.98;;
44973;SDS011;60981;50.720;11.342;2022-12-15T16:37:51;29.52;;;16.45;;
44973;SDS011;60981;50.720;11.342;2022-12-15T16:38:53;28.27;;;16.05;;
44973;SDS011;60981;50.720;11.342;2022-12-15T16:39:54;26.88;;;16.13;;
44973;SDS011;60981;50.720;11.342;2022-12-15T16:40:57;33.30;;;18.13;;
44973;SDS011;60981;50.720;11.342;2022-12-15T16:42:04;34.90;;;19.65;;
44973;SDS011;60981;50.720;11.342;2022-12-15T16:43:16;33.28;;;18.98;;
44973;SDS011;60981;50.720;11.342;2022-12-15T16:45:20;36.08;;;18.65;;
44973;SDS011;60981;50.720;11.342;2022-12-15T16:46:22;36.20;;;19.25;;
44973;SDS011;60981;50.720;11.342;2022-12-15T16:47:23;34.92;;;19.38;;
44973;SDS011;60981;50.720;11.342;2022-12-15T16:48:25;33.33;;;18.80;;
44973;SDS011;60981;50.720;11.342;2022-12-15T16:49:27;33.35;;;18.98;;
44973;SDS011;60981;50.720;11.342;2022-12-15T16:50:39;30.05;;;16.92;;
44973;SDS011;60981;50.720;11.342;2022-12-15T16:51:42;32.75;;;17.95;;
44973;SDS011;60981;50.720;11.342;2022-12-15T16:52:45;28.25;;;16.55;;